sensor_id;sensor_type;location;lat;lon;timestamp;P1;durP1;ratioP1;P2;durP2;ratioP2
6135;SDS011;24008;42.664;23.372;2023-12-07T00:01:18;32.57;;;20.33;;
6135;SDS011;24008;42.664;23.372;2023-12-07T00:03:44;34.17;;;19.57;;
6135;SDS011;24008;42.664;23.372;2023-12-07T00:06:12;37.67;;;21.03;;
6135;SDS011;24008;42.664;23.372;2023-12-07T00:08:39;36.57;;;19.30;;
6135;SDS011;24008;42.664;23.372;2023-12-07T00:11:06;33.13;;;19.77;;
6135;SDS011;24008;42.664;23.372;2023-12-07T00:13:32;38.03;;;20.53;;
6135;SDS011;24008;42.664;23.372;2023-12-07T00:15:59;32.30;;;19.17;;
6135;SDS011;24008;42.664;23.372;2023-12-07T00:18:26;33.43;;;18.97;;
6135;SDS011;24008;42.664;23.372;2023-12-07T00:20:52;36.83;;;20.67;;
6135;SDS011;24008;42.664;23.372;2023-12-07T00:23:20;36.97;;;20.70;;
6135;SDS011;24008;42.664;23.372;2023-12-07T00:25:47;36.10;;;21.53;;
6135;SDS011;24008;42.664;23.372;2023-12-07T00:28:14;32.93;;;20.50;;
6135;SDS011;24008;42.664;23.372;2023-12-07T00:30:41;34.23;;;20.87;;
6135;SDS011;24008;42.664;23.372;2023-12-07T00:33:08;38.97;;;22.87;;
6135;SDS011;24008;42.664;23.372;2023-12-07T00:35:35;40.07;;;23.57;;
6135;SDS011;24008;42.664;23.372;2023-12-07T00:38:02;34.63;;;21.03;;
6135;SDS011;24008;42.664;23.372;2023-12-07T00:40:30;36.40;;;21.73;;
6135;SDS011;24008;42.664;23.372;2023-12-07T00:43:01;41.37;;;22.63;;
6135;SDS011;24008;42.664;23.372;2023-12-07T00:45:27;40.10;;;23.00;;
6135;SDS011;24008;42.664;23.372;2023-12-07T00:47:54;37.73;;;21.97;;
6135;SDS011;24008;42.664;23.372;2023-12-07T00:50:20;42.03;;;23.10;;
6135;SDS011;24008;42.664;23.372;2023-12-07T00:52:47;38.77;;;22.33;;
6135;SDS011;24008;42.664;23.372;2023-12-07T00:55:14;38.63;;;22.77;;
6135;SDS011;24008;42.664;23.372;2023-12-07T00:57:42;42.60;;;23.40;;
6135;SDS011;24008;42.664;23.372;2023-12-07T01:00:09;37.67;;;22.97;;
6135;SDS011;24008;42.664;23.372;2023-12-07T01:02:36;44.57;;;24.17;;
6135;SDS011;24008;42.664;23.372;2023-12-07T01:05:03;41.37;;;23.60;;
6135;SDS011;24008;42.664;23.372;2023-12-07T01:07:30;41.97;;;24.63;;
6135;SDS011;24008;42.664;23.372;2023-12-07T01:09:57;46.90;;;24.70;;
6135;SDS011;24008;42.664;23.372;2023-12-07T01:12:24;46.60;;;25.20;;
6135;SDS011;24008;42.664;23.372;2023-12-07T01:14:52;47.03;;;25.73;;
6135;SDS011;24008;42.664;23.372;2023-12-07T01:17:18;46.60;;;26.73;;
6135;SDS011;24008;42.664;23.372;2023-12-07T01:19:45;49.43;;;27.53;;
6135;SDS011;24008;42.664;23.372;2023-12-07T01:22:12;48.53;;;26.87;;
6135;SDS011;24008;42.664;23.372;2023-12-07T01:24:38;51.97;;;28.37;;
6135;SDS011;24008;42.664;23.372;2023-12-07T01:27:06;52.20;;;28.47;;
6135;SDS011;24008;42.664;23.372;2023-12-07T01:29:33;49.83;;;28.07;;
6135;SDS011;24008;42.664;23.372;2023-12-07T01:32:01;51.67;;;29.90;;
6135;SDS011;24008;42.664;23.372;2023-12-07T01:34:27;49.63;;;28.03;;
6135;SDS011;24008;42.664;23.372;2023-12-07T01:36:54;51.33;;;28.90;;
6135;SDS011;24008;42.664;23.372;2023-12-07T01:39:21;53.87;;;29.97;;
6135;SDS011;24008;42.664;23.372;2023-12-07T01:41:47;53.30;;;29.10;;
6135;SDS011;24008;42.664;23.372;2023-12-07T01:44:14;58.83;;;31.90;;
6135;SDS011;24008;42.664;23.372;2023-12-07T01:46:41;55.43;;;29.67;;
6135;SDS011;24008;42.664;23.372;2023-12-07T01:49:09;50.03;;;27.77;;
6135;SDS011;24008;42.664;23.372;2023-12-07T01:51:36;52.07;;;28.73;;
6135;SDS011;24008;42.664;23.372;2023-12-07T01:54:03;51.83;;;29.07;;
6135;SDS011;24008;42.664;23.372;2023-12-07T01:56:30;59.03;;;30.30;;
6135;SDS011;24008;42.664;23.372;2023-12-07T01:58:57;55.30;;;30.60;;
6135;SDS011;24008;42.664;23.372;2023-12-07T02:01:24;57.07;;;30.37;;
6135;SDS011;24008;42.664;23.372;2023-12-07T02:03:51;58.33;;;30.47;;
6135;SDS011;24008;42.664;23.372;2023-12-07T02:06:19;57.20;;;30.60;;
6135;SDS011;24008;42.664;23.372;2023-12-07T02:08:46;58.43;;;30.67;;
6135;SDS011;24008;42.664;23.372;2023-12-07T02:11:13;58.17;;;31.77;;
6135;SDS011;24008;42.664;23.372;2023-12-07T02:13:40;57.27;;;30.93;;
6135;SDS011;24008;42.664;23.372;2023-12-07T02:16:09;56.57;;;31.33;;
6135;SDS011;24008;42.664;23.372;2023-12-07T02:18:42;56.80;;;31.03;;
6135;SDS011;24008;42.664;23.372;2023-12-07T02:21:21;56.17;;;30.70;;
6135;SDS011;24008;42.664;23.372;2023-12-07T02:23:51;56.23;;;29.40;;
6135;SDS011;24008;42.664;23.372;2023-12-07T02:29:17;58.30;;;30.13;;
6135;SDS011;24008;42.664;23.372;2023-12-07T02:31:44;54.90;;;29.37;;
6135;SDS011;24008;42.664;23.372;2023-12-07T02:34:11;54.07;;;29.90;;
6135;SDS011;24008;42.664;23.372;2023-12-07T02:36:38;53.40;;;29.73;;
6135;SDS011;24008;42.664;23.372;2023-12-07T02:39:06;54.70;;;30.33;;
6135;SDS011;24008;42.664;23.372;2023-12-07T02:41:34;54.37;;;28.67;;
6135;SDS011;24008;42.664;23.372;2023-12-07T02:44:04;53.30;;;29.27;;
6135;SDS011;24008;42.664;23.372;2023-12-07T02:46:31;58.20;;;31.03;;
6135;SDS011;24008;42.664;23.372;2023-12-07T02:48:58;56.13;;;29.77;;
6135;SDS011;24008;42.664;23.372;2023-12-07T02:51:24;56.83;;;30.70;;
6135;SDS011;24008;42.664;23.372;2023-12-07T02:53:51;58.07;;;29.77;;
6135;SDS011;24008;42.664;23.372;2023-12-07T02:56:18;57.43;;;29.63;;
6135;SDS011;24008;42.664;23.372;2023-12-07T02:58:44;55.60;;;29.53;;
6135;SDS011;24008;42.664;23.372;2023-12-07T03:01:12;54.47;;;30.17;;
6135;SDS011;24008;42.664;23.372;2023-12-07T03:03:39;57.37;;;30.00;;
6135;SDS011;24008;42.664;23.372;2023-12-07T03:06:07;52.47;;;28.07;;
6135;SDS011;24008;42.664;23.372;2023-12-07T03:08:34;54.83;;;29.63;;
6135;SDS011;24008;42.664;23.372;2023-12-07T03:11:00;53.60;;;28.70;;
6135;SDS011;24008;42.664;23.372;2023-12-07T03:13:27;56.13;;;30.30;;
6135;SDS011;24008;42.664;23.372;2023-12-07T03:15:54;55.57;;;30.13;;
6135;SDS011;24008;42.664;23.372;2023-12-07T03:18:22;59.47;;;29.80;;
6135;SDS011;24008;42.664;23.372;2023-12-07T03:20:48;52.93;;;28.37;;
6135;SDS011;24008;42.664;23.372;2023-12-07T03:23:16;55.50;;;28.70;;
6135;SDS011;24008;42.664;23.372;2023-12-07T03:25:42;54.67;;;27.33;;
6135;SDS011;24008;42.664;23.372;2023-12-07T03:28:09;54.77;;;29.53;;
6135;SDS011;24008;42.664;23.372;2023-12-07T03:30:36;57.30;;;29.43;;
6135;SDS011;24008;42.664;23.372;2023-12-07T03:33:02;48.83;;;28.30;;
6135;SDS011;24008;42.664;23.372;2023-12-07T03:35:30;52.70;;;28.60;;
6135;SDS011;24008;42.664;23.372;2023-12-07T03:37:57;53.00;;;29.17;;
6135;SDS011;24008;42.664;23.372;2023-12-07T03:40:24;57.53;;;29.97;;
6135;SDS011;24008;42.664;23.372;2023-12-07T03:42:50;49.23;;;26.97;;
6135;SDS011;24008;42.664;23.372;2023-12-07T03:45:17;52.80;;;28.20;;
6135;SDS011;24008;42.664;23.372;2023-12-07T03:47:44;49.37;;;26.10;;
6135;SDS011;24008;42.664;23.372;2023-12-07T03:50:10;50.47;;;27.77;;
6135;SDS011;24008;42.664;23.372;2023-12-07T03:52:38;47.90;;;27.97;;
6135;SDS011;24008;42.664;23.372;2023-12-07T03:55:05;56.27;;;27.43;;
6135;SDS011;24008;42.664;23.372;2023-12-07T03:57:32;48.63;;;27.33;;
6135;SDS011;24008;42.664;23.372;2023-12-07T03:59:59;52.03;;;27.80;;
6135;SDS011;24008;42.664;23.372;2023-12-07T04:02:26;49.20;;;27.87;;
6135;SDS011;24008;42.664;23.372;2023-12-07T04:04:52;50.30;;;27.23;;
6135;SDS011;24008;42.664;23.372;2023-12-07T04:07:19;48.47;;;28.00;;
6135;SDS011;24008;42.664;23.372;2023-12-07T04:09:48;50.83;;;27.23;;
6135;SDS011;24008;42.664;23.372;2023-12-07T04:12:14;51.10;;;27.50;;
6135;SDS011;24008;42.664;23.372;2023-12-07T04:14:41;44.37;;;27.03;;
6135;SDS011;24008;42.664;23.372;2023-12-07T04:17:08;44.20;;;25.60;;
6135;SDS011;24008;42.664;23.372;2023-12-07T04:19:34;43.70;;;25.87;;
6135;SDS011;24008;42.664;23.372;2023-12-07T04:22:01;45.63;;;26.37;;
6135;SDS011;24008;42.664;23.372;2023-12-07T04:24:28;47.23;;;26.23;;
6135;SDS011;24008;42.664;23.372;2023-12-07T04:26:56;50.23;;;27.77;;
6135;SDS011;24008;42.664;23.372;2023-12-07T04:29:23;47.07;;;27.23;;
6135;SDS011;24008;42.664;23.372;2023-12-07T04:31:49;47.37;;;26.10;;
6135;SDS011;24008;42.664;23.372;2023-12-07T04:34:16;47.50;;;26.83;;
6135;SDS011;24008;42.664;23.372;2023-12-07T04:36:43;44.27;;;26.10;;
6135;SDS011;24008;42.664;23.372;2023-12-07T04:39:09;52.70;;;26.90;;
6135;SDS011;24008;42.664;23.372;2023-12-07T04:41:36;47.07;;;25.77;;
6135;SDS011;24008;42.664;23.372;2023-12-07T04:44:05;44.67;;;25.13;;
6135;SDS011;24008;42.664;23.372;2023-12-07T04:46:31;43.23;;;24.73;;
6135;SDS011;24008;42.664;23.372;2023-12-07T04:48:58;47.33;;;26.47;;
6135;SDS011;24008;42.664;23.372;2023-12-07T04:51:25;46.60;;;26.63;;
6135;SDS011;24008;42.664;23.372;2023-12-07T04:53:51;50.67;;;28.63;;
6135;SDS011;24008;42.664;23.372;2023-12-07T04:56:18;50.03;;;28.33;;
6135;SDS011;24008;42.664;23.372;2023-12-07T04:58:45;52.47;;;28.90;;
6135;SDS011;24008;42.664;23.372;2023-12-07T05:01:13;56.27;;;27.30;;
6135;SDS011;24008;42.664;23.372;2023-12-07T05:03:39;51.57;;;28.33;;
6135;SDS011;24008;42.664;23.372;2023-12-07T05:06:06;55.80;;;29.47;;
6135;SDS011;24008;42.664;23.372;2023-12-07T05:08:33;56.13;;;31.07;;
6135;SDS011;24008;42.664;23.372;2023-12-07T05:11:00;55.87;;;28.13;;
6135;SDS011;24008;42.664;23.372;2023-12-07T05:13:26;53.30;;;28.00;;
6135;SDS011;24008;42.664;23.372;2023-12-07T05:15:53;47.57;;;26.43;;
6135;SDS011;24008;42.664;23.372;2023-12-07T05:18:21;47.07;;;26.83;;
6135;SDS011;24008;42.664;23.372;2023-12-07T05:20:48;48.17;;;27.73;;
6135;SDS011;24008;42.664;23.372;2023-12-07T05:23:14;50.03;;;26.43;;
6135;SDS011;24008;42.664;23.372;2023-12-07T05:25:41;52.20;;;28.87;;
6135;SDS011;24008;42.664;23.372;2023-12-07T05:28:08;65.23;;;36.57;;
6135;SDS011;24008;42.664;23.372;2023-12-07T05:30:35;62.13;;;33.93;;
6135;SDS011;24008;42.664;23.372;2023-12-07T05:33:02;54.73;;;31.00;;
6135;SDS011;24008;42.664;23.372;2023-12-07T05:35:31;51.97;;;29.40;;
6135;SDS011;24008;42.664;23.372;2023-12-07T05:37:57;59.60;;;34.60;;
6135;SDS011;24008;42.664;23.372;2023-12-07T05:40:24;54.53;;;33.07;;
6135;SDS011;24008;42.664;23.372;2023-12-07T05:42:51;91.67;;;51.03;;
6135;SDS011;24008;42.664;23.372;2023-12-07T05:45:18;67.13;;;37.73;;
6135;SDS011;24008;42.664;23.372;2023-12-07T05:47:44;57.80;;;33.57;;
6135;SDS011;24008;42.664;23.372;2023-12-07T05:50:11;49.10;;;27.73;;
6135;SDS011;24008;42.664;23.372;2023-12-07T05:52:40;45.63;;;25.53;;
6135;SDS011;24008;42.664;23.372;2023-12-07T05:55:07;43.63;;;24.97;;
6135;SDS011;24008;42.664;23.372;2023-12-07T05:57:34;38.93;;;22.40;;
6135;SDS011;24008;42.664;23.372;2023-12-07T06:00:00;39.97;;;23.30;;
6135;SDS011;24008;42.664;23.372;2023-12-07T06:02:27;39.17;;;22.60;;
6135;SDS011;24008;42.664;23.372;2023-12-07T06:04:54;42.83;;;22.47;;
6135;SDS011;24008;42.664;23.372;2023-12-07T06:07:21;38.97;;;22.80;;
6135;SDS011;24008;42.664;23.372;2023-12-07T06:09:49;36.90;;;22.57;;
6135;SDS011;24008;42.664;23.372;2023-12-07T06:12:15;41.17;;;24.03;;
6135;SDS011;24008;42.664;23.372;2023-12-07T06:14:42;40.80;;;23.17;;
6135;SDS011;24008;42.664;23.372;2023-12-07T06:17:09;35.03;;;21.67;;
6135;SDS011;24008;42.664;23.372;2023-12-07T06:19:35;41.37;;;23.70;;
6135;SDS011;24008;42.664;23.372;2023-12-07T06:22:02;42.00;;;23.00;;
6135;SDS011;24008;42.664;23.372;2023-12-07T06:24:29;42.27;;;23.17;;
6135;SDS011;24008;42.664;23.372;2023-12-07T06:26:57;40.20;;;24.10;;
6135;SDS011;24008;42.664;23.372;2023-12-07T06:29:24;37.23;;;23.27;;
6135;SDS011;24008;42.664;23.372;2023-12-07T06:31:51;39.13;;;22.87;;
6135;SDS011;24008;42.664;23.372;2023-12-07T06:34:17;37.10;;;22.60;;
6135;SDS011;24008;42.664;23.372;2023-12-07T06:36:44;42.50;;;24.13;;
6135;SDS011;24008;42.664;23.372;2023-12-07T06:39:12;37.20;;;22.50;;
6135;SDS011;24008;42.664;23.372;2023-12-07T06:41:39;42.67;;;24.60;;
6135;SDS011;24008;42.664;23.372;2023-12-07T06:44:07;46.27;;;26.63;;
6135;SDS011;24008;42.664;23.372;2023-12-07T06:46:34;39.47;;;24.43;;
6135;SDS011;24008;42.664;23.372;2023-12-07T06:49:01;41.43;;;23.40;;
6135;SDS011;24008;42.664;23.372;2023-12-07T06:51:27;34.17;;;21.23;;
6135;SDS011;24008;42.664;23.372;2023-12-07T06:53:53;38.03;;;21.53;;
6135;SDS011;24008;42.664;23.372;2023-12-07T06:56:20;33.87;;;20.50;;
6135;SDS011;24008;42.664;23.372;2023-12-07T06:58:46;34.17;;;20.07;;
6135;SDS011;24008;42.664;23.372;2023-12-07T07:01:14;35.77;;;19.80;;
6135;SDS011;24008;42.664;23.372;2023-12-07T07:03:41;33.80;;;18.90;;
6135;SDS011;24008;42.664;23.372;2023-12-07T07:06:08;29.07;;;17.57;;
6135;SDS011;24008;42.664;23.372;2023-12-07T07:08:34;27.67;;;16.43;;
6135;SDS011;24008;42.664;23.372;2023-12-07T07:11:01;29.63;;;17.33;;
6135;SDS011;24008;42.664;23.372;2023-12-07T07:13:28;30.57;;;17.40;;
6135;SDS011;24008;42.664;23.372;2023-12-07T07:15:55;26.60;;;15.83;;
6135;SDS011;24008;42.664;23.372;2023-12-07T07:18:23;27.20;;;16.93;;
6135;SDS011;24008;42.664;23.372;2023-12-07T07:20:50;30.47;;;16.40;;
6135;SDS011;24008;42.664;23.372;2023-12-07T07:23:17;29.27;;;16.73;;
6135;SDS011;24008;42.664;23.372;2023-12-07T07:25:44;31.37;;;17.80;;
6135;SDS011;24008;42.664;23.372;2023-12-07T07:28:10;30.87;;;17.73;;
6135;SDS011;24008;42.664;23.372;2023-12-07T07:30:37;29.23;;;17.13;;
6135;SDS011;24008;42.664;23.372;2023-12-07T07:33:04;24.40;;;15.93;;
6135;SDS011;24008;42.664;23.372;2023-12-07T07:35:33;24.53;;;14.77;;
6135;SDS011;24008;42.664;23.372;2023-12-07T07:37:59;30.03;;;15.30;;
6135;SDS011;24008;42.664;23.372;2023-12-07T07:40:26;25.27;;;14.57;;
6135;SDS011;24008;42.664;23.372;2023-12-07T07:42:53;25.27;;;15.10;;
6135;SDS011;24008;42.664;23.372;2023-12-07T07:45:19;26.27;;;15.03;;
6135;SDS011;24008;42.664;23.372;2023-12-07T07:47:46;27.03;;;15.43;;
6135;SDS011;24008;42.664;23.372;2023-12-07T07:50:13;25.20;;;15.47;;
6135;SDS011;24008;42.664;23.372;2023-12-07T07:52:41;28.67;;;15.60;;
6135;SDS011;24008;42.664;23.372;2023-12-07T07:55:08;25.70;;;15.87;;
6135;SDS011;24008;42.664;23.372;2023-12-07T07:57:34;26.97;;;16.33;;
6135;SDS011;24008;42.664;23.372;2023-12-07T08:00:01;27.53;;;15.90;;
6135;SDS011;24008;42.664;23.372;2023-12-07T08:02:30;27.27;;;16.50;;
6135;SDS011;24008;42.664;23.372;2023-12-07T08:04:57;26.47;;;16.80;;
6135;SDS011;24008;42.664;23.372;2023-12-07T08:07:23;32.10;;;17.50;;
6135;SDS011;24008;42.664;23.372;2023-12-07T08:09:51;26.53;;;15.90;;
6135;SDS011;24008;42.664;23.372;2023-12-07T08:12:18;26.80;;;17.27;;
6135;SDS011;24008;42.664;23.372;2023-12-07T08:14:47;23.27;;;13.97;;
6135;SDS011;24008;42.664;23.372;2023-12-07T08:17:14;25.93;;;16.00;;
6135;SDS011;24008;42.664;23.372;2023-12-07T08:19:41;21.50;;;13.17;;
6135;SDS011;24008;42.664;23.372;2023-12-07T08:22:08;20.63;;;12.63;;
6135;SDS011;24008;42.664;23.372;2023-12-07T08:24:35;16.47;;;10.63;;
6135;SDS011;24008;42.664;23.372;2023-12-07T08:27:03;17.57;;;11.77;;
6135;SDS011;24008;42.664;23.372;2023-12-07T08:29:30;18.83;;;11.77;;
6135;SDS011;24008;42.664;23.372;2023-12-07T08:31:57;19.23;;;11.33;;
6135;SDS011;24008;42.664;23.372;2023-12-07T08:34:24;15.23;;;10.40;;
6135;SDS011;24008;42.664;23.372;2023-12-07T08:36:50;15.10;;;9.60;;
6135;SDS011;24008;42.664;23.372;2023-12-07T08:39:17;14.87;;;9.33;;
6135;SDS011;24008;42.664;23.372;2023-12-07T08:41:43;13.17;;;8.87;;
6135;SDS011;24008;42.664;23.372;2023-12-07T08:44:11;13.83;;;9.90;;
6135;SDS011;24008;42.664;23.372;2023-12-07T08:46:38;13.43;;;9.13;;
6135;SDS011;24008;42.664;23.372;2023-12-07T08:49:05;11.47;;;8.60;;
6135;SDS011;24008;42.664;23.372;2023-12-07T08:51:32;12.53;;;8.90;;
6135;SDS011;24008;42.664;23.372;2023-12-07T08:53:59;12.63;;;9.53;;
6135;SDS011;24008;42.664;23.372;2023-12-07T08:56:26;14.03;;;8.97;;
6135;SDS011;24008;42.664;23.372;2023-12-07T08:58:52;11.27;;;8.43;;
6135;SDS011;24008;42.664;23.372;2023-12-07T09:01:21;11.90;;;8.20;;
6135;SDS011;24008;42.664;23.372;2023-12-07T09:03:47;10.43;;;7.93;;
6135;SDS011;24008;42.664;23.372;2023-12-07T09:06:14;10.77;;;7.60;;
6135;SDS011;24008;42.664;23.372;2023-12-07T09:08:40;10.13;;;7.33;;
6135;SDS011;24008;42.664;23.372;2023-12-07T09:11:07;11.33;;;7.57;;
6135;SDS011;24008;42.664;23.372;2023-12-07T09:13:34;9.03;;;7.03;;
6135;SDS011;24008;42.664;23.372;2023-12-07T09:16:01;8.50;;;6.53;;
6135;SDS011;24008;42.664;23.372;2023-12-07T09:18:30;8.87;;;6.63;;
6135;SDS011;24008;42.664;23.372;2023-12-07T09:20:57;12.87;;;8.33;;
6135;SDS011;24008;42.664;23.372;2023-12-07T09:23:23;10.97;;;7.20;;
6135;SDS011;24008;42.664;23.372;2023-12-07T09:25:50;8.73;;;6.40;;
6135;SDS011;24008;42.664;23.372;2023-12-07T09:28:17;13.07;;;6.97;;
6135;SDS011;24008;42.664;23.372;2023-12-07T09:30:44;7.87;;;6.57;;
6135;SDS011;24008;42.664;23.372;2023-12-07T09:33:11;10.43;;;7.40;;
6135;SDS011;24008;42.664;23.372;2023-12-07T09:35:39;7.83;;;6.63;;
6135;SDS011;24008;42.664;23.372;2023-12-07T09:38:06;9.13;;;6.70;;
6135;SDS011;24008;42.664;23.372;2023-12-07T09:40:33;8.73;;;6.70;;
6135;SDS011;24008;42.664;23.372;2023-12-07T09:43:00;9.73;;;6.30;;
6135;SDS011;24008;42.664;23.372;2023-12-07T09:45:27;8.60;;;6.37;;
6135;SDS011;24008;42.664;23.372;2023-12-07T09:47:54;8.70;;;6.33;;
6135;SDS011;24008;42.664;23.372;2023-12-07T09:50:22;7.83;;;6.30;;
6135;SDS011;24008;42.664;23.372;2023-12-07T09:52:53;6.83;;;5.30;;
6135;SDS011;24008;42.664;23.372;2023-12-07T09:55:21;6.63;;;5.40;;
6135;SDS011;24008;42.664;23.372;2023-12-07T09:57:50;9.33;;;5.80;;
6135;SDS011;24008;42.664;23.372;2023-12-07T10:00:17;8.17;;;5.53;;
6135;SDS011;24008;42.664;23.372;2023-12-07T10:02:45;9.07;;;5.67;;
6135;SDS011;24008;42.664;23.372;2023-12-07T10:05:13;7.37;;;4.90;;
6135;SDS011;24008;42.664;23.372;2023-12-07T10:07:42;6.27;;;4.80;;
6135;SDS011;24008;42.664;23.372;2023-12-07T10:10:13;7.13;;;5.17;;
6135;SDS011;24008;42.664;23.372;2023-12-07T10:12:44;7.57;;;4.97;;
6135;SDS011;24008;42.664;23.372;2023-12-07T10:15:13;7.40;;;5.50;;
6135;SDS011;24008;42.664;23.372;2023-12-07T10:17:44;8.13;;;5.20;;
6135;SDS011;24008;42.664;23.372;2023-12-07T10:20:14;6.03;;;4.60;;
6135;SDS011;24008;42.664;23.372;2023-12-07T10:22:45;7.70;;;4.80;;
6135;SDS011;24008;42.664;23.372;2023-12-07T10:25:13;8.53;;;4.50;;
6135;SDS011;24008;42.664;23.372;2023-12-07T10:27:40;7.80;;;4.53;;
6135;SDS011;24008;42.664;23.372;2023-12-07T10:30:09;6.47;;;4.37;;
6135;SDS011;24008;42.664;23.372;2023-12-07T10:32:37;5.53;;;4.10;;
6135;SDS011;24008;42.664;23.372;2023-12-07T10:35:08;5.07;;;4.17;;
6135;SDS011;24008;42.664;23.372;2023-12-07T10:37:36;5.07;;;4.53;;
6135;SDS011;24008;42.664;23.372;2023-12-07T10:40:03;5.47;;;4.37;;
6135;SDS011;24008;42.664;23.372;2023-12-07T10:42:34;5.77;;;4.30;;
6135;SDS011;24008;42.664;23.372;2023-12-07T10:45:07;6.67;;;4.10;;
6135;SDS011;24008;42.664;23.372;2023-12-07T10:47:43;6.23;;;4.10;;
6135;SDS011;24008;42.664;23.372;2023-12-07T10:50:11;7.40;;;4.57;;
6135;SDS011;24008;42.664;23.372;2023-12-07T10:52:43;5.23;;;4.50;;
6135;SDS011;24008;42.664;23.372;2023-12-07T10:55:13;5.93;;;4.87;;
6135;SDS011;24008;42.664;23.372;2023-12-07T10:57:44;6.07;;;5.20;;
6135;SDS011;24008;42.664;23.372;2023-12-07T11:00:13;5.87;;;4.20;;
6135;SDS011;24008;42.664;23.372;2023-12-07T11:02:40;4.97;;;4.23;;
6135;SDS011;24008;42.664;23.372;2023-12-07T11:05:09;5.97;;;4.43;;
6135;SDS011;24008;42.664;23.372;2023-12-07T11:07:39;6.00;;;3.70;;
6135;SDS011;24008;42.664;23.372;2023-12-07T11:10:17;4.77;;;4.20;;
6135;SDS011;24008;42.664;23.372;2023-12-07T11:12:51;6.17;;;4.33;;
6135;SDS011;24008;42.664;23.372;2023-12-07T11:15:22;6.87;;;3.80;;
6135;SDS011;24008;42.664;23.372;2023-12-07T11:17:50;5.80;;;3.47;;
6135;SDS011;24008;42.664;23.372;2023-12-07T11:20:18;5.03;;;4.47;;
6135;SDS011;24008;42.664;23.372;2023-12-07T11:22:46;6.60;;;4.60;;
6135;SDS011;24008;42.664;23.372;2023-12-07T11:25:14;5.27;;;4.33;;
6135;SDS011;24008;42.664;23.372;2023-12-07T11:27:43;6.10;;;4.50;;
6135;SDS011;24008;42.664;23.372;2023-12-07T11:30:14;6.43;;;4.97;;
6135;SDS011;24008;42.664;23.372;2023-12-07T11:32:42;5.50;;;4.10;;
6135;SDS011;24008;42.664;23.372;2023-12-07T11:35:12;4.40;;;3.93;;
6135;SDS011;24008;42.664;23.372;2023-12-07T11:40:31;4.10;;;3.70;;
6135;SDS011;24008;42.664;23.372;2023-12-07T11:42:59;4.87;;;3.80;;
6135;SDS011;24008;42.664;23.372;2023-12-07T11:45:38;5.20;;;4.70;;
6135;SDS011;24008;42.664;23.372;2023-12-07T11:48:06;5.77;;;4.80;;
6135;SDS011;24008;42.664;23.372;2023-12-07T11:50:43;5.07;;;4.33;;
6135;SDS011;24008;42.664;23.372;2023-12-07T11:53:21;5.87;;;4.43;;
6135;SDS011;24008;42.664;23.372;2023-12-07T11:55:48;5.33;;;4.20;;
6135;SDS011;24008;42.664;23.372;2023-12-07T11:58:15;4.23;;;3.83;;
6135;SDS011;24008;42.664;23.372;2023-12-07T12:00:44;5.93;;;4.20;;
6135;SDS011;24008;42.664;23.372;2023-12-07T12:03:12;4.47;;;3.90;;
6135;SDS011;24008;42.664;23.372;2023-12-07T12:05:39;5.40;;;4.07;;
6135;SDS011;24008;42.664;23.372;2023-12-07T12:08:05;4.90;;;4.40;;
6135;SDS011;24008;42.664;23.372;2023-12-07T12:10:32;5.23;;;4.73;;
6135;SDS011;24008;42.664;23.372;2023-12-07T12:13:01;4.77;;;4.17;;
6135;SDS011;24008;42.664;23.372;2023-12-07T12:15:28;5.40;;;4.40;;
6135;SDS011;24008;42.664;23.372;2023-12-07T12:17:56;5.07;;;4.57;;
6135;SDS011;24008;42.664;23.372;2023-12-07T12:20:23;5.33;;;4.40;;
6135;SDS011;24008;42.664;23.372;2023-12-07T12:22:50;5.00;;;4.10;;
6135;SDS011;24008;42.664;23.372;2023-12-07T12:25:19;8.77;;;5.13;;
6135;SDS011;24008;42.664;23.372;2023-12-07T12:27:47;6.07;;;4.37;;
6135;SDS011;24008;42.664;23.372;2023-12-07T12:30:15;4.67;;;4.17;;
6135;SDS011;24008;42.664;23.372;2023-12-07T12:32:44;6.03;;;4.53;;
6135;SDS011;24008;42.664;23.372;2023-12-07T12:35:12;6.27;;;4.60;;
6135;SDS011;24008;42.664;23.372;2023-12-07T12:37:39;6.67;;;4.73;;
6135;SDS011;24008;42.664;23.372;2023-12-07T12:40:07;5.30;;;4.80;;
6135;SDS011;24008;42.664;23.372;2023-12-07T12:42:35;5.33;;;4.83;;
6135;SDS011;24008;42.664;23.372;2023-12-07T12:45:04;5.13;;;4.60;;
6135;SDS011;24008;42.664;23.372;2023-12-07T12:47:33;5.30;;;4.80;;
6135;SDS011;24008;42.664;23.372;2023-12-07T12:50:00;6.37;;;5.03;;
6135;SDS011;24008;42.664;23.372;2023-12-07T12:52:30;5.17;;;4.67;;
6135;SDS011;24008;42.664;23.372;2023-12-07T12:54:57;5.83;;;5.03;;
6135;SDS011;24008;42.664;23.372;2023-12-07T12:57:24;6.00;;;5.00;;
6135;SDS011;24008;42.664;23.372;2023-12-07T12:59:51;8.40;;;5.23;;
6135;SDS011;24008;42.664;23.372;2023-12-07T13:02:18;6.87;;;5.70;;
6135;SDS011;24008;42.664;23.372;2023-12-07T13:04:45;7.60;;;5.40;;
6135;SDS011;24008;42.664;23.372;2023-12-07T13:07:12;6.43;;;5.60;;
6135;SDS011;24008;42.664;23.372;2023-12-07T13:09:40;7.40;;;5.53;;
6135;SDS011;24008;42.664;23.372;2023-12-07T13:12:08;6.77;;;5.07;;
6135;SDS011;24008;42.664;23.372;2023-12-07T13:14:35;7.13;;;5.17;;
6135;SDS011;24008;42.664;23.372;2023-12-07T13:17:04;7.03;;;5.30;;
6135;SDS011;24008;42.664;23.372;2023-12-07T13:19:32;7.93;;;5.93;;
6135;SDS011;24008;42.664;23.372;2023-12-07T13:21:59;8.63;;;5.90;;
6135;SDS011;24008;42.664;23.372;2023-12-07T13:24:26;8.33;;;6.50;;
6135;SDS011;24008;42.664;23.372;2023-12-07T13:26:54;7.53;;;6.23;;
6135;SDS011;24008;42.664;23.372;2023-12-07T13:29:22;9.03;;;6.20;;
6135;SDS011;24008;42.664;23.372;2023-12-07T13:31:49;7.40;;;6.13;;
6135;SDS011;24008;42.664;23.372;2023-12-07T13:34:16;7.00;;;6.30;;
6135;SDS011;24008;42.664;23.372;2023-12-07T13:36:43;7.73;;;6.70;;
6135;SDS011;24008;42.664;23.372;2023-12-07T13:39:09;9.17;;;7.17;;
6135;SDS011;24008;42.664;23.372;2023-12-07T13:41:38;7.73;;;6.57;;
6135;SDS011;24008;42.664;23.372;2023-12-07T13:44:06;8.83;;;6.93;;
6135;SDS011;24008;42.664;23.372;2023-12-07T13:46:32;9.03;;;6.93;;
6135;SDS011;24008;42.664;23.372;2023-12-07T13:48:59;8.97;;;6.93;;
6135;SDS011;24008;42.664;23.372;2023-12-07T13:51:25;8.27;;;6.60;;
6135;SDS011;24008;42.664;23.372;2023-12-07T13:53:52;9.37;;;7.43;;
6135;SDS011;24008;42.664;23.372;2023-12-07T13:56:21;10.60;;;7.43;;
6135;SDS011;24008;42.664;23.372;2023-12-07T13:58:48;9.40;;;7.73;;
6135;SDS011;24008;42.664;23.372;2023-12-07T14:01:17;10.40;;;7.60;;
6135;SDS011;24008;42.664;23.372;2023-12-07T14:03:43;11.40;;;8.27;;
6135;SDS011;24008;42.664;23.372;2023-12-07T14:06:10;9.30;;;7.67;;
6135;SDS011;24008;42.664;23.372;2023-12-07T14:08:39;11.27;;;8.53;;
6135;SDS011;24008;42.664;23.372;2023-12-07T14:11:05;12.07;;;9.03;;
6135;SDS011;24008;42.664;23.372;2023-12-07T14:13:32;12.63;;;9.10;;
6135;SDS011;24008;42.664;23.372;2023-12-07T14:15:59;11.87;;;8.73;;
6135;SDS011;24008;42.664;23.372;2023-12-07T14:18:27;12.80;;;9.27;;
6135;SDS011;24008;42.664;23.372;2023-12-07T14:20:53;12.93;;;9.73;;
6135;SDS011;24008;42.664;23.372;2023-12-07T14:23:20;13.10;;;9.57;;
6135;SDS011;24008;42.664;23.372;2023-12-07T14:25:48;12.50;;;9.30;;
6135;SDS011;24008;42.664;23.372;2023-12-07T14:28:16;13.73;;;9.60;;
6135;SDS011;24008;42.664;23.372;2023-12-07T14:30:43;12.27;;;9.33;;
6135;SDS011;24008;42.664;23.372;2023-12-07T14:33:10;14.63;;;10.03;;
6135;SDS011;24008;42.664;23.372;2023-12-07T14:35:38;15.17;;;11.10;;
6135;SDS011;24008;42.664;23.372;2023-12-07T14:38:05;14.67;;;10.50;;